Time;durP1;ratioP1;P1;durP2;ratioP2;P2;SDS_P1;SDS_P2;PMS_P1;PMS_P2;Temp;Humidity;BMP_temperature;BMP_pressure;BME280_temperature;BME280_humidity;BME280_pressure;Samples;Min_cycle;Max_cycle;Signal;HPM_P1;HPM_P2
2023/05/06 00:00:39;;;;;;;14.25;6.65;;;11.20;99.90;;;;;;5012918;28;20042;-53
2023/05/06 00:03:05;;;;;;;11.73;5.90;;;11.30;99.90;;;;;;5013094;28;20046;-51
2023/05/06 00:05:31;;;;;;;14.75;7.45;;;11.10;99.90;;;;;;5012715;28;20061;-51
2023/05/06 00:07:56;;;;;;;13.05;6.22;;;11.20;99.90;;;;;;5013223;28;20037;-49
2023/05/06 00:10:22;;;;;;;15.32;7.22;;;11.40;99.90;;;;;;5012940;28;20112;-51
2023/05/06 00:12:48;;;;;;;12.07;6.57;;;11.30;99.90;;;;;;5012822;28;20125;-52
2023/05/06 00:15:14;;;;;;;13.15;7.15;;;11.20;99.90;;;;;;5012811;28;20125;-49
2023/05/06 00:17:39;;;;;;;18.58;7.68;;;11.20;99.90;;;;;;5012573;28;20069;-51
2023/05/06 00:20:06;;;;;;;13.60;6.82;;;11.20;99.90;;;;;;5012528;28;20229;-52
2023/05/06 00:22:32;;;;;;;11.70;7.13;;;11.30;99.90;;;;;;5012816;28;20698;-50
2023/05/06 00:24:57;;;;;;;12.48;6.93;;;11.20;99.90;;;;;;5012973;28;20074;-52
2023/05/06 00:27:23;;;;;;;12.82;6.85;;;11.10;99.90;;;;;;5012467;28;20073;-50
2023/05/06 00:29:48;;;;;;;10.45;6.07;;;11.20;99.90;;;;;;5012851;28;20045;-47
2023/05/06 00:32:14;;;;;;;13.07;7.03;;;11.00;99.90;;;;;;5012550;28;20046;-48
2023/05/06 00:34:40;;;;;;;22.23;6.72;;;11.10;99.90;;;;;;5012490;28;20050;-48
2023/05/06 00:37:06;;;;;;;14.52;6.75;;;11.00;99.90;;;;;;5012468;28;20515;-50
2023/05/06 00:39:32;;;;;;;13.82;6.78;;;11.20;99.90;;;;;;5012509;28;20038;-49
2023/05/06 00:42:01;;;;;;;14.45;6.90;;;11.00;99.90;;;;;;5012550;28;20048;-50
2023/05/06 00:44:27;;;;;;;18.75;7.03;;;10.90;99.90;;;;;;5012339;28;20079;-47
2023/05/06 00:46:54;;;;;;;13.57;6.85;;;10.80;99.90;;;;;;5012072;28;20038;-47
2023/05/06 00:49:20;;;;;;;10.73;5.32;;;10.70;99.90;;;;;;5011976;28;20077;-51
2023/05/06 00:51:46;;;;;;;4.78;2.63;;;10.80;99.90;;;;;;5011687;28;20034;-49
2023/05/06 00:54:12;;;;;;;6.88;3.15;;;10.80;99.90;;;;;;5010930;28;20488;-49
2023/05/06 00:56:39;;;;;;;9.43;6.07;;;10.70;99.90;;;;;;5010835;28;20490;-50
2023/05/06 00:59:05;;;;;;;10.77;5.55;;;11.00;99.90;;;;;;5010952;28;20129;-51
2023/05/06 01:01:32;;;;;;;8.15;5.00;;;10.70;99.90;;;;;;5011675;28;20443;-49
2023/05/06 01:03:57;;;;;;;10.38;6.05;;;10.60;99.90;;;;;;5007688;28;20026;-48
2023/05/06 01:07:07;;;;;;;10.57;6.53;;;10.60;99.90;;;;;;4992165;28;20037;-50
2023/05/06 01:09:52;;;;;;;9.75;6.10;;;10.50;99.90;;;;;;4992121;28;20052;-49
2023/05/06 01:12:29;;;;;;;16.25;7.22;;;10.50;99.90;;;;;;4992031;28;20046;-49
2023/05/06 01:15:07;;;;;;;16.77;6.35;;;10.50;99.90;;;;;;4992036;28;20435;-52
2023/05/06 01:17:37;;;;;;;10.48;6.95;;;10.50;99.90;;;;;;4991759;28;20049;-52
2023/05/06 01:20:05;;;;;;;16.20;8.35;;;10.40;99.90;;;;;;4991483;28;20054;-49
2023/05/06 01:22:36;;;;;;;12.20;7.28;;;10.30;99.90;;;;;;4991808;28;20063;-50
2023/05/06 01:25:02;;;;;;;18.05;8.88;;;10.80;99.90;;;;;;4991655;28;20546;-50
2023/05/06 01:27:27;;;;;;;14.18;8.63;;;10.30;99.90;;;;;;4991767;28;20074;-50
2023/05/06 01:29:54;;;;;;;14.15;8.85;;;10.30;99.90;;;;;;4991758;28;20061;-48
2023/05/06 01:32:25;;;;;;;13.02;7.55;;;10.30;99.90;;;;;;4991652;28;20077;-52
2023/05/06 01:35:05;;;;;;;14.20;8.75;;;10.70;99.90;;;;;;4991367;28;20540;-49
2023/05/06 01:37:39;;;;;;;13.38;8.38;;;10.20;99.90;;;;;;4991599;28;20050;-50
2023/05/06 01:40:06;;;;;;;13.75;8.60;;;10.20;99.90;;;;;;4991343;28;20579;-48
2023/05/06 01:42:34;;;;;;;15.00;8.75;;;10.20;99.90;;;;;;4991222;28;20058;-49
2023/05/06 01:45:01;;;;;;;11.70;8.23;;;10.20;99.90;;;;;;4991354;28;20117;-49
2023/05/06 01:47:27;;;;;;;22.02;9.73;;;10.20;99.90;;;;;;4989982;28;20038;-51
2023/05/06 01:49:53;;;;;;;18.55;8.90;;;10.10;99.90;;;;;;4991213;28;20124;-51
2023/05/06 01:52:20;;;;;;;20.80;10.00;;;10.10;99.90;;;;;;4991291;28;20113;-51
2023/05/06 01:54:46;;;;;;;14.32;8.88;;;10.40;99.90;;;;;;4991218;28;20512;-49
2023/05/06 01:57:12;;;;;;;14.27;8.40;;;9.90;99.90;;;;;;4991062;28;20046;-49
2023/05/06 01:59:37;;;;;;;10.80;6.82;;;10.20;99.90;;;;;;4991317;28;20395;-48
2023/05/06 02:02:03;;;;;;;17.83;8.77;;;10.70;99.90;;;;;;4991480;28;20444;-49
2023/05/06 02:04:29;;;;;;;22.00;10.98;;;10.40;99.90;;;;;;4998454;28;20030;-48
2023/05/06 02:06:55;;;;;;;21.33;11.13;;;10.60;99.90;;;;;;5010895;28;20092;-49
2023/05/06 02:09:21;;;;;;;26.63;11.73;;;10.30;99.90;;;;;;5011010;28;20069;-48
2023/05/06 02:11:47;;;;;;;22.85;11.55;;;10.20;99.90;;;;;;5011022;28;20089;-48
2023/05/06 02:14:12;;;;;;;17.63;11.07;;;10.30;99.90;;;;;;5010973;28;20077;-47
2023/05/06 02:16:38;;;;;;;26.40;11.65;;;10.80;99.90;;;;;;5009596;28;20072;-49
2023/05/06 02:19:05;;;;;;;21.13;11.63;;;10.30;99.90;;;;;;5010531;28;20042;-49
2023/05/06 02:21:31;;;;;;;19.83;10.85;;;10.30;99.90;;;;;;5010525;28;20073;-48
2023/05/06 02:23:57;;;;;;;18.55;10.73;;;10.20;99.90;;;;;;5011191;28;20042;-50
2023/05/06 02:26:23;;;;;;;18.58;11.57;;;10.90;99.90;;;;;;5010868;28;20088;-50
2023/05/06 02:28:48;;;;;;;22.35;11.95;;;10.00;99.90;;;;;;5010465;28;20081;-50
2023/05/06 02:31:15;;;;;;;25.00;11.98;;;10.20;99.90;;;;;;5011117;28;20053;-49
2023/05/06 02:33:41;;;;;;;21.85;11.32;;;10.70;99.90;;;;;;5010989;28;20479;-46
2023/05/06 02:36:06;;;;;;;17.25;10.70;;;10.10;99.90;;;;;;5010898;28;20042;-47
2023/05/06 02:38:32;;;;;;;18.88;11.65;;;10.10;99.90;;;;;;5010405;28;20045;-47
2023/05/06 02:40:58;;;;;;;22.48;10.77;;;10.10;99.90;;;;;;5010514;28;20057;-47
2023/05/06 02:43:23;;;;;;;16.35;10.65;;;10.20;99.90;;;;;;5010295;28;20037;-48
2023/05/06 02:45:49;;;;;;;20.52;11.38;;;10.80;99.90;;;;;;5010436;28;20046;-48
2023/05/06 02:48:15;;;;;;;17.55;11.10;;;10.50;99.90;;;;;;5010316;28;20037;-48
2023/05/06 02:50:41;;;;;;;19.20;11.30;;;9.70;99.90;;;;;;5010346;28;20484;-48
2023/05/06 02:53:08;;;;;;;26.65;12.13;;;9.60;99.90;;;;;;5010247;28;20034;-49
2023/05/06 02:55:33;;;;;;;27.40;11.90;;;9.80;99.90;;;;;;5010299;28;20281;-49
2023/05/06 02:57:59;;;;;;;29.33;12.38;;;9.60;99.90;;;;;;5010423;28;20053;-49
2023/05/06 03:00:25;;;;;;;21.15;11.50;;;9.90;99.90;;;;;;5010325;28;20060;-49
2023/05/06 03:02:50;;;;;;;20.00;11.40;;;9.60;99.90;;;;;;5010357;28;20391;-52
2023/05/06 03:05:16;;;;;;;19.10;11.48;;;10.30;99.90;;;;;;4996288;28;20522;-49
2023/05/06 03:07:42;;;;;;;22.35;10.98;;;9.60;99.90;;;;;;4990729;28;20536;-52
2023/05/06 03:10:08;;;;;;;21.05;11.25;;;10.20;99.90;;;;;;4990823;28;20078;-48
2023/05/06 03:12:34;;;;;;;19.23;11.70;;;9.50;99.90;;;;;;4990793;28;20046;-51
2023/05/06 03:14:59;;;;;;;26.75;12.88;;;10.30;99.90;;;;;;4990840;28;20481;-49
2023/05/06 03:17:25;;;;;;;38.83;10.85;;;9.00;99.90;;;;;;5004783;28;20133;-51
2023/05/06 03:19:51;;;;;;;23.52;8.55;;;9.40;99.90;;;;;;4989441;28;20050;-48
2023/05/06 03:22:16;;;;;;;20.40;8.77;;;9.90;99.90;;;;;;4989567;28;20527;-49
2023/05/06 03:24:42;;;;;;;30.05;8.15;;;9.30;99.90;;;;;;4989681;28;20484;-50
2023/05/06 03:27:08;;;;;;;13.05;6.65;;;9.30;99.90;;;;;;4990271;28;20426;-49
2023/05/06 03:29:33;;;;;;;17.40;6.63;;;9.10;99.90;;;;;;4993000;28;20464;-48
2023/05/06 03:32:02;;;;;;;43.17;7.07;;;9.10;99.90;;;;;;4993880;28;20050;-51
2023/05/06 03:34:29;;;;;;;58.50;7.03;;;9.10;99.90;;;;;;4993732;28;20049;-50
2023/05/06 03:36:56;;;;;;;75.93;7.38;;;9.00;99.90;;;;;;4993911;28;20128;-49
2023/05/06 03:39:22;;;;;;;75.20;7.97;;;8.90;99.90;;;;;;4993578;28;20034;-50
2023/05/06 03:41:48;;;;;;;38.75;6.97;;;8.90;99.90;;;;;;4993684;28;20113;-50
2023/05/06 03:44:13;;;;;;;19.52;6.32;;;8.80;99.90;;;;;;4993575;28;20039;-48
2023/05/06 03:46:40;;;;;;;14.90;6.60;;;8.80;99.90;;;;;;4993401;28;20042;-49
2023/05/06 03:49:06;;;;;;;29.60;7.38;;;8.70;99.90;;;;;;4993535;28;20400;-50
2023/05/06 03:51:32;;;;;;;29.95;6.93;;;8.70;99.90;;;;;;4993464;28;20034;-49
2023/05/06 03:53:58;;;;;;;35.17;6.88;;;8.60;99.90;;;;;;4993719;28;20121;-49
2023/05/06 03:56:24;;;;;;;25.85;7.00;;;8.60;99.90;;;;;;4993145;28;20076;-51
2023/05/06 03:58:50;;;;;;;18.65;6.13;;;8.50;99.90;;;;;;4993315;28;20069;-50
2023/05/06 04:01:17;;;;;;;35.83;7.53;;;9.40;99.90;;;;;;4992884;28;20125;-49
2023/05/06 04:03:43;;;;;;;27.95;7.15;;;8.50;99.90;;;;;;5008959;28;20050;-49
2023/05/06 04:06:09;;;;;;;32.63;6.63;;;8.50;99.90;;;;;;5012592;28;20042;-49
2023/05/06 04:08:35;;;;;;;21.48;7.63;;;8.70;99.90;;;;;;5012155;28;20540;-51
2023/05/06 04:11:07;;;;;;;45.50;9.52;;;8.40;99.90;;;;;;5011501;28;20133;-49
2023/05/06 04:13:33;;;;;;;46.67;9.68;;;8.60;99.90;;;;;;5011722;28;20041;-49
2023/05/06 04:16:00;;;;;;;75.15;11.20;;;8.40;99.90;;;;;;5011299;28;20496;-50
2023/05/06 04:18:25;;;;;;;33.45;9.10;;;8.30;99.90;;;;;;5011523;28;20042;-50
2023/05/06 04:20:51;;;;;;;49.22;12.00;;;8.60;99.90;;;;;;5011797;28;20096;-49
2023/05/06 04:23:17;;;;;;;17.85;9.63;;;8.30;99.90;;;;;;5012392;28;20050;-49
2023/05/06 04:25:47;;;;;;;19.65;9.50;;;8.30;99.90;;;;;;5012309;28;20046;-49
2023/05/06 04:28:13;;;;;;;27.90;11.15;;;8.20;99.90;;;;;;5012457;28;20096;-48
2023/05/06 04:30:39;;;;;;;24.55;11.38;;;8.20;99.90;;;;;;5012518;28;20121;-51
2023/05/06 04:33:06;;;;;;;22.25;10.82;;;8.20;99.90;;;;;;5027325;28;20054;-52
2023/05/06 04:35:32;;;;;;;16.85;10.63;;;8.20;99.90;;;;;;5012286;28;20046;-50
2023/05/06 04:37:58;;;;;;;11.02;8.63;;;8.30;99.90;;;;;;5012049;28;20052;-48
2023/05/06 04:40:26;;;;;;;20.95;10.45;;;8.30;99.90;;;;;;5012384;28;20046;-49
2023/05/06 04:42:52;;;;;;;25.45;10.63;;;8.30;99.90;;;;;;5012370;28;20117;-49
2023/05/06 04:45:18;;;;;;;25.45;11.98;;;8.70;99.90;;;;;;5011957;28;20116;-49
2023/05/06 04:47:44;;;;;;;19.10;10.25;;;8.50;99.90;;;;;;5011917;28;20511;-49
2023/05/06 04:50:10;;;;;;;14.88;10.10;;;8.50;99.90;;;;;;5011917;28;20124;-53
2023/05/06 04:52:36;;;;;;;20.02;10.85;;;8.60;99.90;;;;;;5012040;28;20125;-49
2023/05/06 04:55:02;;;;;;;14.23;9.00;;;8.70;99.90;;;;;;5011804;28;20045;-50
2023/05/06 04:57:28;;;;;;;19.38;10.82;;;8.70;99.90;;;;;;5011848;28;20050;-49
2023/05/06 04:59:54;;;;;;;19.40;11.77;;;9.30;99.90;;;;;;5011544;28;20485;-48
2023/05/06 05:02:19;;;;;;;19.80;10.50;;;8.80;99.90;;;;;;5011691;28;20037;-49
2023/05/06 05:04:45;;;;;;;12.07;9.57;;;8.90;99.90;;;;;;5002002;28;20031;-50
2023/05/06 05:07:11;;;;;;;18.17;11.65;;;9.10;99.90;;;;;;4992006;28;20050;-52
2023/05/06 05:09:36;;;;;;;18.00;11.88;;;9.00;99.90;;;;;;4992030;28;20050;-50
2023/05/06 05:12:02;;;;;;;17.27;11.02;;;9.00;99.90;;;;;;4992123;28;20058;-50
2023/05/06 05:14:28;;;;;;;13.98;10.30;;;9.10;99.90;;;;;;4991894;28;20523;-49
2023/05/06 05:16:54;;;;;;;26.13;12.10;;;9.10;99.90;;;;;;4991834;28;20043;-49
2023/05/06 05:19:20;;;;;;;31.67;13.50;;;9.20;99.90;;;;;;4991804;28;20057;-50
2023/05/06 05:21:46;;;;;;;13.32;10.88;;;9.30;99.90;;;;;;4991695;28;20125;-53
2023/05/06 05:24:12;;;;;;;14.80;11.38;;;9.40;99.90;;;;;;4991704;28;20042;-50
2023/05/06 05:26:37;;;;;;;13.23;11.43;;;9.40;99.90;;;;;;4991181;28;20060;-49
2023/05/06 05:29:03;;;;;;;15.68;12.80;;;9.60;99.90;;;;;;4991340;28;20045;-51
2023/05/06 05:31:30;;;;;;;65.43;18.17;;;9.70;99.90;;;;;;4991608;28;20051;-48
2023/05/06 05:33:56;;;;;;;14.93;13.25;;;9.90;99.90;;;;;;4990277;28;20042;-49
2023/05/06 05:36:22;;;;;;;21.70;14.30;;;10.00;99.90;;;;;;4991491;28;20492;-51
2023/05/06 05:38:48;;;;;;;17.33;14.77;;;10.10;99.90;;;;;;4991943;28;20042;-50
2023/05/06 05:41:14;;;;;;;20.30;14.55;;;10.20;99.90;;;;;;4991552;28;20034;-50
2023/05/06 05:43:40;;;;;;;18.42;13.77;;;10.20;99.90;;;;;;4991539;28;20133;-51
2023/05/06 05:46:06;;;;;;;23.27;13.98;;;10.30;99.90;;;;;;4991275;28;20075;-49
2023/05/06 05:48:32;;;;;;;18.63;14.55;;;10.30;99.90;;;;;;4991305;28;20089;-50
2023/05/06 05:51:00;;;;;;;19.55;13.77;;;10.40;99.90;;;;;;4990763;28;20054;-49
2023/05/06 05:53:26;;;;;;;16.90;14.38;;;11.20;99.90;;;;;;4991205;28;20042;-53
2023/05/06 05:55:52;;;;;;;17.55;13.55;;;10.70;99.90;;;;;;4991222;28;20046;-50
2023/05/06 05:58:18;;;;;;;19.20;14.70;;;11.00;99.90;;;;;;4991310;28;20046;-52
2023/05/06 06:00:43;;;;;;;27.00;15.70;;;10.80;99.90;;;;;;4991288;28;20049;-52
2023/05/06 06:03:09;;;;;;;24.13;17.88;;;10.80;99.90;;;;;;4991166;28;20425;-52
2023/05/06 06:05:35;;;;;;;26.08;19.10;;;10.80;99.90;;;;;;5006304;28;20041;-53
2023/05/06 06:08:01;;;;;;;28.05;18.33;;;11.20;99.90;;;;;;5010166;28;20365;-52
2023/05/06 06:10:27;;;;;;;28.50;19.25;;;10.90;99.90;;;;;;5009827;28;20045;-50
2023/05/06 06:12:53;;;;;;;29.38;18.92;;;11.30;99.90;;;;;;5009778;28;20080;-51
2023/05/06 06:15:18;;;;;;;24.65;17.65;;;11.00;99.90;;;;;;5009715;28;20045;-50
2023/05/06 06:17:44;;;;;;;20.63;17.27;;;11.00;99.90;;;;;;5009693;28;20049;-51
2023/05/06 06:20:11;;;;;;;23.48;16.88;;;11.10;99.90;;;;;;5009676;28;20550;-50
2023/05/06 06:22:37;;;;;;;25.10;18.00;;;11.10;99.90;;;;;;5010663;28;20045;-49
2023/05/06 06:25:03;;;;;;;28.90;19.70;;;11.20;99.90;;;;;;5010565;28;20057;-49
2023/05/06 06:27:29;;;;;;;27.20;18.50;;;11.20;99.90;;;;;;5010503;28;20594;-50
2023/05/06 06:29:54;;;;;;;24.35;16.90;;;11.20;99.90;;;;;;5010588;28;20496;-49
2023/05/06 06:32:20;;;;;;;26.20;18.67;;;11.20;99.90;;;;;;5010701;28;20124;-49
2023/05/06 06:34:46;;;;;;;27.55;18.67;;;11.40;99.90;;;;;;5010477;28;20044;-53
2023/05/06 06:37:11;;;;;;;23.83;17.35;;;11.70;99.90;;;;;;5010495;28;20096;-49
2023/05/06 06:39:37;;;;;;;23.85;18.27;;;12.00;99.90;;;;;;5010613;28;20038;-52
2023/05/06 06:42:03;;;;;;;28.00;20.83;;;12.30;99.90;;;;;;5010395;28;20046;-52
2023/05/06 06:44:33;;;;;;;24.25;19.35;;;12.70;99.90;;;;;;5010762;28;20069;-50
2023/05/06 06:46:58;;;;;;;30.35;23.42;;;13.10;99.90;;;;;;5010395;28;20040;-52
2023/05/06 06:49:25;;;;;;;34.60;24.15;;;13.40;99.90;;;;;;5010321;28;20717;-52
2023/05/06 06:51:51;;;;;;;32.20;24.38;;;14.10;99.90;;;;;;5010240;28;20038;-51
2023/05/06 06:54:17;;;;;;;27.98;21.67;;;14.80;99.90;;;;;;5010494;28;20034;-50
2023/05/06 06:56:43;;;;;;;28.30;22.42;;;15.20;99.90;;;;;;5010505;28;20042;-53
2023/05/06 06:59:09;;;;;;;28.77;22.73;;;15.30;99.90;;;;;;5010631;28;20052;-51
2023/05/06 07:01:34;;;;;;;26.05;20.73;;;15.40;99.90;;;;;;5010317;28;20048;-53
2023/05/06 07:04:00;;;;;;;23.13;18.55;;;15.50;99.90;;;;;;5010345;28;20044;-52
2023/05/06 07:06:25;;;;;;;23.48;18.38;;;15.80;99.90;;;;;;4993919;28;20779;-54
2023/05/06 07:08:51;;;;;;;21.42;16.67;;;15.80;99.90;;;;;;4993742;28;20473;-53
2023/05/06 07:11:17;;;;;;;21.23;16.85;;;15.80;99.90;;;;;;4994446;28;20046;-52
2023/05/06 07:13:42;;;;;;;20.20;15.23;;;15.70;99.90;;;;;;4994240;28;20074;-54
2023/05/06 07:16:08;;;;;;;19.02;14.30;;;15.60;99.90;;;;;;4994256;28;20097;-53
2023/05/06 07:18:34;;;;;;;20.05;16.00;;;15.60;99.90;;;;;;4994048;28;20050;-50
2023/05/06 07:21:00;;;;;;;19.60;14.50;;;15.60;99.90;;;;;;4993674;28;20054;-52
2023/05/06 07:23:25;;;;;;;18.20;14.23;;;15.50;99.90;;;;;;4994106;28;20082;-50
2023/05/06 07:25:51;;;;;;;19.55;15.85;;;15.40;99.90;;;;;;4993960;28;20137;-51
2023/05/06 07:28:17;;;;;;;19.75;13.93;;;15.40;99.90;;;;;;4993917;28;20070;-52
2023/05/06 07:30:42;;;;;;;17.40;13.88;;;15.40;99.90;;;;;;4993819;28;20042;-51
2023/05/06 07:33:08;;;;;;;17.20;12.90;;;15.30;99.90;;;;;;4993928;28;20046;-50
2023/05/06 07:35:34;;;;;;;18.20;14.35;;;15.30;99.90;;;;;;4993555;28;20412;-52
2023/05/06 07:37:59;;;;;;;18.13;14.60;;;15.30;99.90;;;;;;4993591;28;20047;-54
2023/05/06 07:40:25;;;;;;;19.20;15.18;;;15.30;99.90;;;;;;4993853;28;20089;-53
2023/05/06 07:42:51;;;;;;;17.98;14.48;;;15.60;99.90;;;;;;4993959;28;20074;-53
2023/05/06 07:45:18;;;;;;;17.35;14.02;;;15.70;99.90;;;;;;4993962;28;20074;-53
2023/05/06 07:47:44;;;;;;;18.67;14.65;;;15.90;99.90;;;;;;4993459;28;20078;-55
2023/05/06 07:50:10;;;;;;;18.10;14.50;;;15.90;99.90;;;;;;4993577;28;20081;-54
2023/05/06 07:52:35;;;;;;;20.70;14.95;;;16.00;99.90;;;;;;4993494;28;20286;-51
2023/05/06 07:55:01;;;;;;;21.20;14.57;;;16.00;99.90;;;;;;4993724;28;20576;-54
2023/05/06 07:57:26;;;;;;;19.27;14.55;;;16.00;99.90;;;;;;4993222;28;20534;-52
2023/05/06 07:59:53;;;;;;;17.55;14.18;;;16.00;99.90;;;;;;4993257;28;20045;-52
2023/05/06 08:02:18;;;;;;;17.52;13.90;;;15.90;99.90;;;;;;5007973;28;20042;-53
2023/05/06 08:04:45;;;;;;;17.98;13.52;;;15.90;99.90;;;;;;5002605;28;20687;-53
2023/05/06 08:07:11;;;;;;;20.83;15.93;;;15.90;99.90;;;;;;5012867;28;20080;-54
2023/05/06 08:09:36;;;;;;;18.08;15.07;;;15.90;99.90;;;;;;5012866;28;20093;-49
2023/05/06 08:12:02;;;;;;;20.42;15.55;;;16.20;99.90;;;;;;5011637;28;20034;-49
2023/05/06 08:14:28;;;;;;;20.27;15.65;;;16.60;99.90;;;;;;5011078;28;20411;-47
2023/05/06 08:16:54;;;;;;;20.83;14.80;;;16.90;99.90;;;;;;5011212;28;20044;-51
2023/05/06 08:19:20;;;;;;;17.63;14.10;;;16.90;99.90;;;;;;5011224;28;20046;-48
2023/05/06 08:21:47;;;;;;;16.05;13.73;;;17.10;99.90;;;;;;5012134;28;20112;-47
2023/05/06 08:24:13;;;;;;;15.73;13.27;;;17.50;99.90;;;;;;5012559;28;20111;-47
2023/05/06 08:26:40;;;;;;;16.65;13.23;;;17.60;99.90;;;;;;5012257;28;20030;-48
2023/05/06 08:29:06;;;;;;;15.63;13.63;;;17.80;99.90;;;;;;5012243;28;20381;-50
2023/05/06 08:31:32;;;;;;;15.77;13.48;;;18.10;99.90;;;;;;5012425;28;20050;-45
2023/05/06 08:33:58;;;;;;;13.55;11.25;;;18.40;99.90;;;;;;5012646;28;20072;-45
2023/05/06 08:36:24;;;;;;;12.38;10.88;;;18.70;99.90;;;;;;5012234;28;20033;-45
2023/05/06 08:38:50;;;;;;;12.02;10.57;;;18.90;99.90;;;;;;5011748;28;20721;-47
2023/05/06 08:41:20;;;;;;;11.70;10.50;;;19.10;99.90;;;;;;4977878;28;20531;-49
2023/05/06 08:43:48;;;;;;;11.77;10.05;;;19.30;99.90;;;;;;5005069;28;20046;-48
2023/05/06 08:46:15;;;;;;;10.82;9.73;;;19.40;99.90;;;;;;5004975;28;20037;-45
2023/05/06 08:48:40;;;;;;;12.40;10.60;;;19.50;99.90;;;;;;5005042;28;20068;-49
2023/05/06 08:51:07;;;;;;;13.95;12.45;;;19.60;99.90;;;;;;5005153;28;20787;-46
2023/05/06 08:53:33;;;;;;;11.63;10.13;;;19.80;99.90;;;;;;5005303;28;20136;-46
2023/05/06 08:56:05;;;;;;;9.98;8.38;;;19.90;99.90;;;;;;4999116;28;20046;-47
2023/05/06 08:58:37;;;;;;;11.32;10.07;;;20.00;99.90;;;;;;5004437;28;20037;-46
2023/05/06 09:01:03;;;;;;;11.27;9.07;;;20.20;99.90;;;;;;5004241;28;20045;-47
2023/05/06 09:03:29;;;;;;;11.50;9.30;;;20.20;99.90;;;;;;5004320;28;20041;-45
2023/05/06 09:05:58;;;;;;;9.95;8.93;;;20.20;99.90;;;;;;5004024;28;20038;-46
2023/05/06 09:08:24;;;;;;;12.00;9.50;;;20.20;99.90;;;;;;5005181;28;20545;-46
2023/05/06 09:10:50;;;;;;;12.27;9.15;;;20.20;99.90;;;;;;5005232;28;20149;-47
2023/05/06 09:13:18;;;;;;;12.07;9.02;;;20.40;99.90;;;;;;5005045;28;20072;-46
2023/05/06 09:15:48;;;;;;;10.32;7.97;;;20.50;99.90;;;;;;5004124;28;20054;-47
2023/05/06 09:18:17;;;;;;;9.45;8.18;;;20.70;99.90;;;;;;4998088;28;20100;-46
2023/05/06 09:20:47;;;;;;;9.25;7.93;;;20.80;99.90;;;;;;5003370;28;20093;-46
2023/05/06 09:23:15;;;;;;;9.38;8.18;;;21.00;99.90;;;;;;5004126;28;20046;-45
2023/05/06 09:25:42;;;;;;;10.00;8.52;;;20.90;99.90;;;;;;5002673;28;20833;-46
2023/05/06 09:28:10;;;;;;;10.85;9.05;;;21.00;99.90;;;;;;5003549;28;20403;-48
2023/05/06 09:30:44;;;;;;;12.80;9.85;;;20.80;99.90;;;;;;5003572;28;20069;-48
2023/05/06 09:33:10;;;;;;;11.40;9.02;;;20.50;99.90;;;;;;5003469;28;20042;-49
2023/05/06 09:35:41;;;;;;;11.48;9.65;;;20.30;99.90;;;;;;5003662;28;20033;-48
2023/05/06 09:38:08;;;;;;;11.23;8.98;;;20.10;99.90;;;;;;5003971;28;20056;-50
2023/05/06 09:40:35;;;;;;;11.00;8.98;;;20.00;99.90;;;;;;5004237;28;20096;-45
2023/05/06 09:43:01;;;;;;;11.88;9.00;;;20.10;99.90;;;;;;4975586;28;20049;-51
2023/05/06 09:45:28;;;;;;;12.50;9.30;;;20.20;99.90;;;;;;5000074;28;20046;-47
2023/05/06 09:47:54;;;;;;;12.13;9.77;;;20.30;99.90;;;;;;5004371;28;20033;-47
2023/05/06 09:50:22;;;;;;;11.15;8.82;;;20.50;99.90;;;;;;5003922;28;20500;-46
2023/05/06 09:52:48;;;;;;;13.70;10.27;;;20.70;99.90;;;;;;5004095;28;20091;-48
2023/05/06 09:55:16;;;;;;;12.80;8.90;;;20.80;99.90;;;;;;5004244;28;20072;-47
2023/05/06 09:57:43;;;;;;;12.85;10.38;;;21.00;99.90;;;;;;5002392;28;20068;-48
2023/05/06 10:00:13;;;;;;;10.93;9.05;;;21.10;99.90;;;;;;4998743;28;20041;-49
2023/05/06 10:02:40;;;;;;;11.00;9.00;;;21.20;99.20;;;;;;5003568;28;20045;-48
2023/05/06 10:05:07;;;;;;;11.88;9.82;;;21.20;97.80;;;;;;5003254;28;20928;-46
2023/05/06 10:07:34;;;;;;;11.98;9.13;;;21.20;97.30;;;;;;5003967;28;20583;-46
2023/05/06 10:10:02;;;;;;;11.30;10.10;;;21.10;97.90;;;;;;5005411;28;20737;-48
2023/05/06 10:12:28;;;;;;;10.80;8.88;;;21.10;98.10;;;;;;5009754;28;20057;-46
2023/05/06 10:14:54;;;;;;;10.25;8.70;;;21.00;97.30;;;;;;5010589;28;20037;-46
2023/05/06 10:17:24;;;;;;;10.93;9.45;;;21.00;97.60;;;;;;5010757;28;20039;-48
2023/05/06 10:19:55;;;;;;;11.40;8.77;;;22.00;98.00;;;;;;5010409;28;20042;-48
2023/05/06 10:22:45;;;;;;;11.98;9.45;;;21.00;97.50;;;;;;5010892;28;20125;-47
2023/05/06 10:25:50;;;;;;;10.75;9.30;;;20.90;97.50;;;;;;5010697;28;20052;-47
2023/05/06 10:28:17;;;;;;;15.02;9.95;;;20.90;97.30;;;;;;4948666;29;20093;-48
2023/05/06 10:30:44;;;;;;;11.85;8.57;;;20.90;96.50;;;;;;5000097;28;20135;-45
2023/05/06 10:33:11;;;;;;;10.13;8.43;;;20.90;95.60;;;;;;5010547;28;20046;-48
2023/05/06 10:35:36;;;;;;;10.60;8.35;;;20.90;95.70;;;;;;5010769;28;20096;-47
2023/05/06 10:38:03;;;;;;;11.18;8.90;;;21.00;95.80;;;;;;5013323;28;20523;-46
2023/05/06 10:40:30;;;;;;;12.70;9.07;;;21.00;95.70;;;;;;5014592;28;20050;-46
2023/05/06 10:43:30;;;;;;;12.68;10.05;;;20.80;95.00;;;;;;5014354;28;20038;-48
2023/05/06 10:46:13;;;;;;;11.90;9.35;;;20.60;93.10;;;;;;5014746;28;20042;-46
2023/05/06 10:49:05;;;;;;;13.75;9.70;;;20.40;93.40;;;;;;5014577;28;20445;-45
2023/05/06 10:51:31;;;;;;;13.93;9.63;;;20.20;92.90;;;;;;5014547;28;20084;-47
2023/05/06 10:54:08;;;;;;;11.40;8.48;;;20.00;94.00;;;;;;5014691;28;20037;-46
2023/05/06 10:56:35;;;;;;;11.40;8.88;;;19.90;93.20;;;;;;5014753;28;20049;-45
2023/05/06 10:59:08;;;;;;;12.38;9.05;;;19.80;93.50;;;;;;5014297;28;20045;-47
2023/05/06 11:01:42;;;;;;;14.57;10.02;;;19.80;94.00;;;;;;5014242;28;20034;-48
2023/05/06 11:04:13;;;;;;;13.15;10.27;;;19.90;93.80;;;;;;5014187;28;20068;-47
2023/05/06 11:06:47;;;;;;;13.57;10.88;;;19.90;94.10;;;;;;5013077;28;20080;-46
2023/05/06 11:09:23;;;;;;;15.80;11.60;;;20.00;94.20;;;;;;5013062;28;20080;-47
2023/05/06 11:12:03;;;;;;;13.27;11.20;;;19.90;93.30;;;;;;5013975;28;20046;-45
2023/05/06 11:14:29;;;;;;;14.90;11.82;;;19.80;93.00;;;;;;5014275;28;20046;-46
2023/05/06 11:16:58;;;;;;;15.02;11.57;;;19.70;93.50;;;;;;5013954;28;20038;-46
2023/05/06 11:19:26;;;;;;;15.63;11.88;;;19.60;93.20;;;;;;5013861;28;20388;-45
2023/05/06 11:21:54;;;;;;;15.90;11.77;;;19.50;93.70;;;;;;5013871;28;20184;-46
2023/05/06 11:24:27;;;;;;;15.30;11.52;;;19.50;94.20;;;;;;5013876;28;20096;-47
2023/05/06 11:26:55;;;;;;;14.82;12.05;;;19.50;94.50;;;;;;5014028;28;20041;-46
2023/05/06 11:29:21;;;;;;;14.13;11.70;;;19.60;94.80;;;;;;5013601;28;20479;-47
2023/05/06 11:31:48;;;;;;;13.40;11.02;;;19.70;94.90;;;;;;5013728;28;20038;-47
2023/05/06 11:34:21;;;;;;;15.07;10.52;;;19.80;94.70;;;;;;5014161;28;20453;-45
2023/05/06 11:36:57;;;;;;;13.52;10.32;;;19.80;94.40;;;;;;5014055;28;20383;-46
2023/05/06 11:39:28;;;;;;;13.00;9.88;;;19.80;93.60;;;;;;5013993;28;20369;-49
2023/05/06 11:41:55;;;;;;;14.15;9.77;;;19.70;93.70;;;;;;5013973;28;20046;-45
2023/05/06 11:44:31;;;;;;;13.95;10.15;;;19.60;93.70;;;;;;5013466;28;20044;-46
2023/05/06 11:46:58;;;;;;;10.88;9.63;;;19.60;93.60;;;;;;5013082;28;20503;-46
2023/05/06 11:49:25;;;;;;;11.63;9.25;;;19.60;93.90;;;;;;5012298;28;20046;-47
2023/05/06 11:51:51;;;;;;;12.82;9.25;;;19.60;93.70;;;;;;5013283;28;20057;-45
2023/05/06 11:54:19;;;;;;;10.25;8.98;;;19.50;93.80;;;;;;5013339;28;20038;-48
2023/05/06 11:56:47;;;;;;;12.50;8.40;;;19.50;93.50;;;;;;5013494;28;20045;-47
2023/05/06 11:59:13;;;;;;;10.63;8.75;;;19.40;93.50;;;;;;5012654;28;20116;-46
2023/05/06 12:01:42;;;;;;;9.90;7.57;;;19.30;93.40;;;;;;5012171;28;20054;-48
2023/05/06 12:04:10;;;;;;;9.55;8.25;;;19.10;92.90;;;;;;5007310;28;20135;-46
2023/05/06 12:06:37;;;;;;;10.52;7.95;;;19.10;92.90;;;;;;4992859;28;20092;-49
2023/05/06 12:09:09;;;;;;;10.05;8.60;;;19.00;93.50;;;;;;4992481;28;20046;-46
2023/05/06 12:11:36;;;;;;;9.10;7.90;;;18.90;93.50;;;;;;4992647;28;20050;-46
2023/05/06 12:14:04;;;;;;;11.05;8.55;;;18.90;93.60;;;;;;4992267;28;20072;-50
2023/05/06 12:16:31;;;;;;;10.35;8.70;;;18.80;93.70;;;;;;4992345;28;20057;-47
2023/05/06 12:18:57;;;;;;;10.02;8.55;;;18.70;93.70;;;;;;4992744;28;20053;-49
2023/05/06 12:21:23;;;;;;;12.02;9.63;;;18.80;93.70;;;;;;4992957;28;20146;-49
2023/05/06 12:23:55;;;;;;;14.20;10.18;;;18.90;93.50;;;;;;4993125;28;20600;-50
2023/05/06 12:26:21;;;;;;;13.13;9.23;;;19.00;93.50;;;;;;4992155;28;20042;-50
2023/05/06 12:29:07;;;;;;;14.52;11.02;;;19.10;93.60;;;;;;4991958;28;20121;-49
2023/05/06 12:31:33;;;;;;;14.73;10.98;;;19.10;93.10;;;;;;4992386;28;20039;-48
2023/05/06 12:33:59;;;;;;;12.27;10.98;;;19.20;93.20;;;;;;4993257;28;20042;-50